4G7 weather

Fairmont Municipal-Frankman Field
Fairmont, West Virginia, United States

Public forecast

Using degrees Fahrenheit for public forecast. Weather courtesy of forecast.io.

METAR (pilot weather report)

Closest report is North Central West Virginia Airport, 9.5 nm (17.7 km) SSW. Retrieved 2019/09/19 00:53 UTC (24 minutes ago):

KCKB 190053Z 06003KT 10SM CLR 21/07 A3017 RMK AO2 SLP205 T02060067

TAF (pilot weather forecast)

Forecast is more than 12 hours old.

Closest forecast is North Central West Virginia Airport, 9.5 nm (17.7 km) SSW. Retrieved 2019/09/18 00:21 UTC (1 day ago):

TAF KCKB 182320Z 1900/1924 09005KT P6SM FEW250